Nearby METAR Reports

 

KGSP - Greer/Spartansbg, South Carolina, USA
Distance from station: E 4mi, 6km
Updated: Sun, 07-Jun-2020 12:53am EDT
Clear
Clear
 Wind from SW
Wind: SW 8 mph , 13 km/h
Temperature: 72°F , 22°C
Dew Point: 68°F , 20°C
Humidity: 88%
Barometer: 30.00 inHg , 1015.9 hPa
Clouds: Clear
Visibility: 10 miles , 16 km
2020/06/07 04:53 KGSP 070453Z AUTO 22007KT 10SM CLR 22/20 A3000 RMK AO2 SLP145 T02220200 403220200
KGMU - Greenville, South Carolina, USA
Distance from station: SW 5mi, 8km
Updated: Sun, 07-Jun-2020 12:53am EDT
Clear
Clear
 Wind from WSW
Wind: WSW 6 mph , 9 km/h
Temperature: 75°F , 24°C
Dew Point: 72°F , 22°C
Humidity: 89%
Barometer: 30.01 inHg , 1016.3 hPa
Clouds: Clear
Visibility: 10 miles , 16 km
2020/06/07 04:53 KGMU 070453Z AUTO 24005KT 10SM CLR 24/22 A3001 RMK AO2 SLP149 T02440217 403110217
 
KGYH - Greenville, South Carolina, USA
Distance from station: SSW 11mi, 18km
Updated: Sun, 07-Jun-2020 1:15am EDT
Clear
Clear
 Wind from SSW
Wind: SSW 6 mph , 9 km/h
Temperature: 70°F , 21°C
Dew Point: 70°F , 21°C
Humidity: 100%
Barometer: 30.00 inHg , 1015.9 hPa
Clouds: Clear
Visibility: 10 miles , 16 km
2020/06/07 05:15 KGYH 070515Z AUTO 21005KT 10SM CLR 21/21 A3000 RMK AO2
KSPA - Spartanburg, South Carolina, USA
Distance from station: E 20mi, 32km
Updated: Sun, 07-Jun-2020 1:15am EDT
Clear
Clear
 Wind from calm
Wind: Calm
Temperature: 72°F , 22°C
Dew Point: 68°F , 20°C
Humidity: 88%
Barometer: 29.99 inHg , 1015.6 hPa
Clouds: Clear
Visibility: 10 miles , 16 km
2020/06/07 05:15 KSPA 070515Z AUTO 00000KT 10SM CLR 22/20 A2999 RMK AO2
 
KLQK - Pickens, South Carolina, USA
Distance from station: WSW 24mi, 39km
Updated: Sun, 07-Jun-2020 1:15am EDT
Clear
Clear
 Wind from calm
Wind: Calm
Temperature: 70°F , 21°C
Dew Point: 70°F , 21°C
Humidity: 100%
Barometer: 30.00 inHg , 1015.9 hPa
Clouds: Clear
Visibility: 10 miles , 16 km
2020/06/07 05:15 KLQK 070515Z AUTO 00000KT 10SM CLR 21/21 A3000 RMK AO2 T02060206
KLUX - Laurens, South Carolina, USA
Distance from station: SE 33mi, 54km
Updated: Sun, 07-Jun-2020 1:15am EDT
Clear
Clear
 Wind from SW
Wind: SW 5 mph , 7 km/h
Temperature: 72°F , 22°C
Dew Point: 72°F , 22°C
Humidity: 100%
Barometer: 30.00 inHg , 1015.9 hPa
Clouds: Clear
Visibility: 10 miles , 16 km
2020/06/07 05:15 KLUX 070515Z AUTO 22004KT 10SM CLR 22/22 A3000 RMK AO2
 
KAND - Anderson, South Carolina, USA
Distance from station: SW 37mi, 59km
Updated: Sun, 07-Jun-2020 12:56am EDT
Clear
Clear
 Wind from SSW
Wind: SSW 6 mph , 9 km/h
Temperature: 73°F , 23°C
Dew Point: 72°F , 22°C
Humidity: 94%
Barometer: 30.01 inHg , 1016.3 hPa
Clouds: Clear
Visibility: 10 miles , 16 km
2020/06/07 04:56 KAND 070456Z AUTO 21005KT 10SM CLR 23/22 A3001 RMK AO2 SLP152 T02330217 403060194
KCEU - Clemson, South Carolina, USA
Distance from station: WSW 37mi, 60km
Updated: Sun, 07-Jun-2020 12:54am EDT
Clear
Clear
 Wind from S
Wind: S 3 mph , 6 km/h
Temperature: 73°F , 23°C
Dew Point: 70°F , 21°C
Humidity: 89%
Barometer: 30.01 inHg , 1016.3 hPa
Clouds: Clear
Visibility: 9 miles , 14 km
2020/06/07 04:54 KCEU 070454Z AUTO 19003KT 9SM CLR 23/21 A3001 RMK AO2 SLP152 T02280211 403000194
 
KAVL - Asheville, North Carolina, USA
Distance from station: NNW 40mi, 64km
Updated: Sun, 07-Jun-2020 12:54am EDT
Clear
Clear
 Wind from calm
Wind: Calm
Temperature: 68°F , 20°C
Dew Point: 64°F , 18°C
Humidity: 88%
Barometer: 30.07 inHg , 1018.3 hPa
Clouds: Clear
Visibility: 10 miles , 16 km
2020/06/07 04:54 KAVL 070454Z AUTO 00000KT 10SM CLR 20/18 A3007 RMK AO2 SLP152 T02000183 403110183
KFQD - Rutherfordton, North Carolina, USA
Distance from station: NNE 41mi, 66km
Updated: Sun, 07-Jun-2020 1:15am EDT
Clear
Clear
 Wind from calm
Wind: Calm
Temperature: 68°F , 20°C
Dew Point: 68°F , 20°C
Humidity: 100%
Barometer: 30.00 inHg , 1015.9 hPa
Clouds: Clear
Visibility: 10 miles , 16 km
2020/06/07 05:15 KFQD 070515Z AUTO 00000KT 10SM CLR 20/20 A3000 RMK AO2
 
KGRD - Greenwood, South Carolina, USA
Distance from station: S 45mi, 73km
Updated: Sun, 07-Jun-2020 12:56am EDT
Clear
Clear
 Wind from SW
Wind: SW 8 mph , 13 km/h
Temperature: 73°F , 23°C
Dew Point: 72°F , 22°C
Humidity: 94%
Barometer: 30.02 inHg , 1016.6 hPa
Clouds: Clear
Visibility: 10 miles , 16 km
2020/06/07 04:56 KGRD 070456Z AUTO 22007KT 10SM CLR 23/22 A3002 RMK AO2 SLP159 T02280217 402940200
KEHO - Shelby Muni, North Carolina, USA
Distance from station: ENE 46mi, 74km
Updated: Sun, 07-Jun-2020 1:15am EDT
Clear
Clear
 Wind from SW
Wind: SW 3 mph , 6 km/h
Temperature: 72°F , 22°C
Dew Point: 68°F , 20°C
Humidity: 88%
Barometer: 29.98 inHg , 1015.2 hPa
Clouds: Clear
Visibility: 10 miles , 16 km
2020/06/07 05:15 KEHO 070515Z AUTO 23003KT 10SM CLR 22/20 A2998 RMK AO2 T02230204